sensor_id;sensor_type;location;lat;lon;timestamp;temperature;humidity
75621;DHT22;64574;48.506;-2.750;2022-12-05T00:01:19;4.70;73.60
75621;DHT22;64574;48.506;-2.750;2022-12-05T00:03:47;4.70;73.70
75621;DHT22;64574;48.506;-2.750;2022-12-05T00:06:13;4.70;73.50
75621;DHT22;64574;48.506;-2.750;2022-12-05T00:08:39;4.80;73.50
75621;DHT22;64574;48.506;-2.750;2022-12-05T00:11:10;4.80;73.40
75621;DHT22;64574;48.506;-2.750;2022-12-05T00:13:36;4.80;73.60
75621;DHT22;64574;48.506;-2.750;2022-12-05T00:16:06;4.80;73.50
75621;DHT22;64574;48.506;-2.750;2022-12-05T00:18:32;4.80;73.40
75621;DHT22;64574;48.506;-2.750;2022-12-05T00:20:58;4.90;73.20
75621;DHT22;64574;48.506;-2.750;2022-12-05T00:23:23;4.80;73.40
75621;DHT22;64574;48.506;-2.750;2022-12-05T00:25:49;4.80;73.50
75621;DHT22;64574;48.506;-2.750;2022-12-05T00:28:14;4.80;73.20
75621;DHT22;64574;48.506;-2.750;2022-12-05T00:30:40;4.90;73.20
75621;DHT22;64574;48.506;-2.750;2022-12-05T00:33:06;4.90;73.20
75621;DHT22;64574;48.506;-2.750;2022-12-05T00:35:33;4.80;73.40
75621;DHT22;64574;48.506;-2.750;2022-12-05T00:37:58;4.90;73.20
75621;DHT22;64574;48.506;-2.750;2022-12-05T00:40:24;4.80;73.40
75621;DHT22;64574;48.506;-2.750;2022-12-05T00:42:50;4.70;73.50
75621;DHT22;64574;48.506;-2.750;2022-12-05T00:45:15;4.70;73.30
75621;DHT22;64574;48.506;-2.750;2022-12-05T00:47:41;4.80;73.40
75621;DHT22;64574;48.506;-2.750;2022-12-05T00:50:07;4.80;73.20
75621;DHT22;64574;48.506;-2.750;2022-12-05T00:52:33;4.90;73.20
75621;DHT22;64574;48.506;-2.750;2022-12-05T00:54:58;4.90;73.10
75621;DHT22;64574;48.506;-2.750;2022-12-05T00:57:24;4.90;73.20
75621;DHT22;64574;48.506;-2.750;2022-12-05T00:59:49;4.70;73.20
75621;DHT22;64574;48.506;-2.750;2022-12-05T01:02:15;4.80;73.40
75621;DHT22;64574;48.506;-2.750;2022-12-05T01:04:41;4.90;73.20
75621;DHT22;64574;48.506;-2.750;2022-12-05T01:07:06;4.90;73.00
75621;DHT22;64574;48.506;-2.750;2022-12-05T01:09:32;4.90;73.10
75621;DHT22;64574;48.506;-2.750;2022-12-05T01:11:57;4.90;73.10
75621;DHT22;64574;48.506;-2.750;2022-12-05T01:14:24;4.90;73.20
75621;DHT22;64574;48.506;-2.750;2022-12-05T01:16:52;5.00;72.80
75621;DHT22;64574;48.506;-2.750;2022-12-05T01:19:28;4.90;73.00
75621;DHT22;64574;48.506;-2.750;2022-12-05T01:21:55;4.90;73.20
75621;DHT22;64574;48.506;-2.750;2022-12-05T01:24:21;4.90;73.30
75621;DHT22;64574;48.506;-2.750;2022-12-05T01:26:47;4.80;73.30
75621;DHT22;64574;48.506;-2.750;2022-12-05T01:29:15;4.80;73.40
75621;DHT22;64574;48.506;-2.750;2022-12-05T01:31:42;4.80;73.30
75621;DHT22;64574;48.506;-2.750;2022-12-05T01:34:11;4.80;73.30
75621;DHT22;64574;48.506;-2.750;2022-12-05T01:36:38;4.90;73.10
75621;DHT22;64574;48.506;-2.750;2022-12-05T01:39:05;4.90;73.20
75621;DHT22;64574;48.506;-2.750;2022-12-05T01:41:34;4.70;73.50
75621;DHT22;64574;48.506;-2.750;2022-12-05T01:44:04;4.70;73.70
75621;DHT22;64574;48.506;-2.750;2022-12-05T01:46:32;4.70;73.70
75621;DHT22;64574;48.506;-2.750;2022-12-05T01:49:46;4.80;73.80
75621;DHT22;64574;48.506;-2.750;2022-12-05T01:52:03;4.80;73.80
75621;DHT22;64574;48.506;-2.750;2022-12-05T01:54:30;4.80;74.10
75621;DHT22;64574;48.506;-2.750;2022-12-05T01:57:00;4.90;73.90
75621;DHT22;64574;48.506;-2.750;2022-12-05T01:59:28;4.70;74.10
75621;DHT22;64574;48.506;-2.750;2022-12-05T02:01:55;4.60;74.40
75621;DHT22;64574;48.506;-2.750;2022-12-05T02:04:21;4.70;74.30
75621;DHT22;64574;48.506;-2.750;2022-12-05T02:06:47;4.70;74.10
75621;DHT22;64574;48.506;-2.750;2022-12-05T02:09:13;4.70;74.20
75621;DHT22;64574;48.506;-2.750;2022-12-05T02:11:51;4.80;74.00
75621;DHT22;64574;48.506;-2.750;2022-12-05T02:19:55;4.70;74.20
75621;DHT22;64574;48.506;-2.750;2022-12-05T02:33:35;4.70;74.30
75621;DHT22;64574;48.506;-2.750;2022-12-05T02:36:09;4.70;74.40
75621;DHT22;64574;48.506;-2.750;2022-12-05T02:41:15;4.70;74.40
75621;DHT22;64574;48.506;-2.750;2022-12-05T02:44:20;4.70;74.30
75621;DHT22;64574;48.506;-2.750;2022-12-05T02:46:39;4.80;74.20
75621;DHT22;64574;48.506;-2.750;2022-12-05T02:49:08;4.70;74.30
75621;DHT22;64574;48.506;-2.750;2022-12-05T02:51:40;4.70;74.40
75621;DHT22;64574;48.506;-2.750;2022-12-05T02:54:09;4.70;74.40
75621;DHT22;64574;48.506;-2.750;2022-12-05T02:56:36;4.80;74.50
75621;DHT22;64574;48.506;-2.750;2022-12-05T02:59:02;4.80;74.20
75621;DHT22;64574;48.506;-2.750;2022-12-05T03:01:30;4.70;74.40
75621;DHT22;64574;48.506;-2.750;2022-12-05T03:03:59;4.70;74.50
75621;DHT22;64574;48.506;-2.750;2022-12-05T03:06:33;4.70;74.70
75621;DHT22;64574;48.506;-2.750;2022-12-05T03:09:59;4.60;74.80
75621;DHT22;64574;48.506;-2.750;2022-12-05T03:12:10;4.60;75.00
75621;DHT22;64574;48.506;-2.750;2022-12-05T03:14:49;4.70;74.90
75621;DHT22;64574;48.506;-2.750;2022-12-05T03:17:21;4.70;74.80
75621;DHT22;64574;48.506;-2.750;2022-12-05T03:22:37;4.70;74.90
75621;DHT22;64574;48.506;-2.750;2022-12-05T03:25:05;4.70;75.10
75621;DHT22;64574;48.506;-2.750;2022-12-05T03:27:48;4.70;74.90
75621;DHT22;64574;48.506;-2.750;2022-12-05T03:30:17;4.60;75.00
75621;DHT22;64574;48.506;-2.750;2022-12-05T03:40:47;4.70;74.80
75621;DHT22;64574;48.506;-2.750;2022-12-05T03:45:54;4.70;75.10
75621;DHT22;64574;48.506;-2.750;2022-12-05T03:51:09;4.70;74.90
75621;DHT22;64574;48.506;-2.750;2022-12-05T03:53:48;4.70;75.10
75621;DHT22;64574;48.506;-2.750;2022-12-05T03:56:23;4.70;75.10
75621;DHT22;64574;48.506;-2.750;2022-12-05T03:59:04;4.70;74.90
75621;DHT22;64574;48.506;-2.750;2022-12-05T04:01:32;4.70;75.00
75621;DHT22;64574;48.506;-2.750;2022-12-05T04:04:05;4.70;75.10
75621;DHT22;64574;48.506;-2.750;2022-12-05T04:06:35;4.70;75.00
75621;DHT22;64574;48.506;-2.750;2022-12-05T04:09:06;4.70;75.00
75621;DHT22;64574;48.506;-2.750;2022-12-05T04:11:36;4.70;74.90
75621;DHT22;64574;48.506;-2.750;2022-12-05T04:14:12;4.70;75.20
75621;DHT22;64574;48.506;-2.750;2022-12-05T04:16:50;4.60;75.40
75621;DHT22;64574;48.506;-2.750;2022-12-05T04:22:29;4.70;75.30
75621;DHT22;64574;48.506;-2.750;2022-12-05T04:24:57;4.60;75.40
75621;DHT22;64574;48.506;-2.750;2022-12-05T04:30:34;4.70;75.40
75621;DHT22;64574;48.506;-2.750;2022-12-05T04:33:11;4.70;75.20
75621;DHT22;64574;48.506;-2.750;2022-12-05T04:35:46;4.70;75.40
75621;DHT22;64574;48.506;-2.750;2022-12-05T04:38:22;4.70;75.00
75621;DHT22;64574;48.506;-2.750;2022-12-05T04:40:54;4.70;75.00
75621;DHT22;64574;48.506;-2.750;2022-12-05T04:43:23;4.80;74.90
75621;DHT22;64574;48.506;-2.750;2022-12-05T04:45:50;4.70;75.00
75621;DHT22;64574;48.506;-2.750;2022-12-05T04:48:17;4.70;75.00
75621;DHT22;64574;48.506;-2.750;2022-12-05T04:50:47;4.70;75.10
75621;DHT22;64574;48.506;-2.750;2022-12-05T04:53:15;4.60;75.30
75621;DHT22;64574;48.506;-2.750;2022-12-05T04:55:45;4.60;75.50
75621;DHT22;64574;48.506;-2.750;2022-12-05T04:58:18;4.70;75.60
75621;DHT22;64574;48.506;-2.750;2022-12-05T05:01:06;4.70;75.30
75621;DHT22;64574;48.506;-2.750;2022-12-05T05:04:05;4.70;75.40
75621;DHT22;64574;48.506;-2.750;2022-12-05T05:06:32;4.70;75.40
75621;DHT22;64574;48.506;-2.750;2022-12-05T05:08:57;4.60;75.50
75621;DHT22;64574;48.506;-2.750;2022-12-05T05:11:26;4.70;75.60
75621;DHT22;64574;48.506;-2.750;2022-12-05T05:13:52;4.70;75.40
75621;DHT22;64574;48.506;-2.750;2022-12-05T05:16:20;4.70;75.40
75621;DHT22;64574;48.506;-2.750;2022-12-05T05:18:47;4.70;75.50
75621;DHT22;64574;48.506;-2.750;2022-12-05T05:21:25;4.70;75.50
75621;DHT22;64574;48.506;-2.750;2022-12-05T05:23:51;4.70;75.30
75621;DHT22;64574;48.506;-2.750;2022-12-05T05:26:18;4.70;75.50
75621;DHT22;64574;48.506;-2.750;2022-12-05T05:28:44;4.70;75.50
75621;DHT22;64574;48.506;-2.750;2022-12-05T05:31:10;4.70;75.50
75621;DHT22;64574;48.506;-2.750;2022-12-05T05:33:36;4.60;75.70
75621;DHT22;64574;48.506;-2.750;2022-12-05T05:36:10;4.50;75.80
75621;DHT22;64574;48.506;-2.750;2022-12-05T05:38:48;4.50;75.80
75621;DHT22;64574;48.506;-2.750;2022-12-05T05:41:22;4.50;76.00
75621;DHT22;64574;48.506;-2.750;2022-12-05T05:43:49;4.60;76.00
75621;DHT22;64574;48.506;-2.750;2022-12-05T05:46:18;4.60;75.80
75621;DHT22;64574;48.506;-2.750;2022-12-05T05:48:44;4.70;75.80
75621;DHT22;64574;48.506;-2.750;2022-12-05T05:51:11;4.60;75.80
75621;DHT22;64574;48.506;-2.750;2022-12-05T05:53:37;4.60;75.90
75621;DHT22;64574;48.506;-2.750;2022-12-05T05:56:08;4.60;76.00
75621;DHT22;64574;48.506;-2.750;2022-12-05T05:58:34;4.60;76.00
75621;DHT22;64574;48.506;-2.750;2022-12-05T06:01:09;4.60;76.00
75621;DHT22;64574;48.506;-2.750;2022-12-05T06:03:35;4.60;76.20
75621;DHT22;64574;48.506;-2.750;2022-12-05T06:06:02;4.60;76.00
75621;DHT22;64574;48.506;-2.750;2022-12-05T06:08:33;4.60;76.10
75621;DHT22;64574;48.506;-2.750;2022-12-05T06:11:11;4.60;76.20
75621;DHT22;64574;48.506;-2.750;2022-12-05T06:13:37;4.50;76.20
75621;DHT22;64574;48.506;-2.750;2022-12-05T06:16:07;4.60;76.10
75621;DHT22;64574;48.506;-2.750;2022-12-05T06:18:34;4.70;76.00
75621;DHT22;64574;48.506;-2.750;2022-12-05T06:21:00;4.70;75.90
75621;DHT22;64574;48.506;-2.750;2022-12-05T06:23:26;4.70;75.80
75621;DHT22;64574;48.506;-2.750;2022-12-05T06:25:54;4.70;75.80
75621;DHT22;64574;48.506;-2.750;2022-12-05T06:28:22;4.60;76.10
75621;DHT22;64574;48.506;-2.750;2022-12-05T06:30:48;4.50;76.00
75621;DHT22;64574;48.506;-2.750;2022-12-05T06:33:14;4.60;76.00
75621;DHT22;64574;48.506;-2.750;2022-12-05T06:35:40;4.50;76.20
75621;DHT22;64574;48.506;-2.750;2022-12-05T06:38:06;4.50;76.50
75621;DHT22;64574;48.506;-2.750;2022-12-05T06:40:32;4.50;76.60
75621;DHT22;64574;48.506;-2.750;2022-12-05T06:42:58;4.50;76.60
75621;DHT22;64574;48.506;-2.750;2022-12-05T06:45:24;4.60;76.40
75621;DHT22;64574;48.506;-2.750;2022-12-05T06:47:51;4.70;76.20
75621;DHT22;64574;48.506;-2.750;2022-12-05T06:50:17;4.70;76.20
75621;DHT22;64574;48.506;-2.750;2022-12-05T06:52:42;4.70;75.90
75621;DHT22;64574;48.506;-2.750;2022-12-05T06:55:08;4.70;75.90
75621;DHT22;64574;48.506;-2.750;2022-12-05T06:57:34;4.70;75.80
75621;DHT22;64574;48.506;-2.750;2022-12-05T07:00:00;4.70;75.80
75621;DHT22;64574;48.506;-2.750;2022-12-05T07:02:44;4.70;75.80
75621;DHT22;64574;48.506;-2.750;2022-12-05T07:05:10;4.70;75.70
75621;DHT22;64574;48.506;-2.750;2022-12-05T07:07:36;4.70;75.70
75621;DHT22;64574;48.506;-2.750;2022-12-05T07:10:03;4.70;75.80
75621;DHT22;64574;48.506;-2.750;2022-12-05T07:12:31;4.70;75.90
75621;DHT22;64574;48.506;-2.750;2022-12-05T07:14:57;4.70;75.80
75621;DHT22;64574;48.506;-2.750;2022-12-05T07:17:23;4.70;75.70
75621;DHT22;64574;48.506;-2.750;2022-12-05T07:19:50;4.70;75.70
75621;DHT22;64574;48.506;-2.750;2022-12-05T07:22:21;4.70;75.80
75621;DHT22;64574;48.506;-2.750;2022-12-05T07:24:47;4.70;75.80
75621;DHT22;64574;48.506;-2.750;2022-12-05T07:27:14;4.70;76.00
75621;DHT22;64574;48.506;-2.750;2022-12-05T07:29:40;4.70;75.80
75621;DHT22;64574;48.506;-2.750;2022-12-05T07:32:06;4.70;76.20
75621;DHT22;64574;48.506;-2.750;2022-12-05T07:34:31;4.70;76.30
75621;DHT22;64574;48.506;-2.750;2022-12-05T07:36:57;4.60;76.30
75621;DHT22;64574;48.506;-2.750;2022-12-05T07:39:22;4.60;76.40
75621;DHT22;64574;48.506;-2.750;2022-12-05T07:41:48;4.70;76.50
75621;DHT22;64574;48.506;-2.750;2022-12-05T07:44:14;4.70;76.20
75621;DHT22;64574;48.506;-2.750;2022-12-05T07:46:39;4.70;75.90
75621;DHT22;64574;48.506;-2.750;2022-12-05T07:49:06;4.70;76.20
75621;DHT22;64574;48.506;-2.750;2022-12-05T07:51:32;4.70;76.40
75621;DHT22;64574;48.506;-2.750;2022-12-05T07:53:58;4.70;76.10
75621;DHT22;64574;48.506;-2.750;2022-12-05T07:56:24;4.70;76.40
75621;DHT22;64574;48.506;-2.750;2022-12-05T07:58:50;4.60;76.50
75621;DHT22;64574;48.506;-2.750;2022-12-05T08:01:21;4.60;76.60
75621;DHT22;64574;48.506;-2.750;2022-12-05T08:03:47;4.70;76.60
75621;DHT22;64574;48.506;-2.750;2022-12-05T08:06:17;4.70;76.40
75621;DHT22;64574;48.506;-2.750;2022-12-05T08:08:44;4.70;76.50
75621;DHT22;64574;48.506;-2.750;2022-12-05T08:11:18;4.70;76.30
75621;DHT22;64574;48.506;-2.750;2022-12-05T08:13:44;4.70;76.20
75621;DHT22;64574;48.506;-2.750;2022-12-05T08:16:12;4.70;76.30
75621;DHT22;64574;48.506;-2.750;2022-12-05T08:18:38;4.70;76.20
75621;DHT22;64574;48.506;-2.750;2022-12-05T08:21:05;4.70;76.20
75621;DHT22;64574;48.506;-2.750;2022-12-05T08:23:31;4.70;76.20
75621;DHT22;64574;48.506;-2.750;2022-12-05T08:26:06;4.70;76.20
75621;DHT22;64574;48.506;-2.750;2022-12-05T08:28:32;4.70;76.40
75621;DHT22;64574;48.506;-2.750;2022-12-05T08:31:12;4.70;76.50
75621;DHT22;64574;48.506;-2.750;2022-12-05T08:33:38;4.70;76.40
75621;DHT22;64574;48.506;-2.750;2022-12-05T08:36:06;4.70;76.40
75621;DHT22;64574;48.506;-2.750;2022-12-05T08:38:33;4.70;76.40
75621;DHT22;64574;48.506;-2.750;2022-12-05T08:41:03;4.70;76.50
75621;DHT22;64574;48.506;-2.750;2022-12-05T08:43:30;4.70;76.60
75621;DHT22;64574;48.506;-2.750;2022-12-05T08:45:56;4.70;76.70
75621;DHT22;64574;48.506;-2.750;2022-12-05T08:48:22;4.70;76.50
75621;DHT22;64574;48.506;-2.750;2022-12-05T08:50:48;4.70;76.60
75621;DHT22;64574;48.506;-2.750;2022-12-05T08:53:13;4.70;76.70
75621;DHT22;64574;48.506;-2.750;2022-12-05T08:55:39;4.70;76.60
75621;DHT22;64574;48.506;-2.750;2022-12-05T08:58:05;4.70;76.20
75621;DHT22;64574;48.506;-2.750;2022-12-05T09:00:31;4.70;76.40
75621;DHT22;64574;48.506;-2.750;2022-12-05T09:02:57;4.70;76.50
75621;DHT22;64574;48.506;-2.750;2022-12-05T09:05:23;4.70;76.40
75621;DHT22;64574;48.506;-2.750;2022-12-05T09:07:49;4.70;76.40
75621;DHT22;64574;48.506;-2.750;2022-12-05T09:10:14;4.70;76.40
75621;DHT22;64574;48.506;-2.750;2022-12-05T09:12:40;4.70;76.50
75621;DHT22;64574;48.506;-2.750;2022-12-05T09:15:07;4.90;76.30
75621;DHT22;64574;48.506;-2.750;2022-12-05T09:17:34;4.90;76.10
75621;DHT22;64574;48.506;-2.750;2022-12-05T09:20:00;4.90;75.90
75621;DHT22;64574;48.506;-2.750;2022-12-05T09:22:26;4.80;76.00
75621;DHT22;64574;48.506;-2.750;2022-12-05T09:24:52;4.90;76.00
75621;DHT22;64574;48.506;-2.750;2022-12-05T09:27:17;4.90;75.90
75621;DHT22;64574;48.506;-2.750;2022-12-05T09:29:43;5.00;76.00
75621;DHT22;64574;48.506;-2.750;2022-12-05T09:32:09;5.00;75.80
75621;DHT22;64574;48.506;-2.750;2022-12-05T09:34:36;5.00;75.90
75621;DHT22;64574;48.506;-2.750;2022-12-05T09:37:05;5.00;75.90
75621;DHT22;64574;48.506;-2.750;2022-12-05T09:39:32;5.00;76.00
75621;DHT22;64574;48.506;-2.750;2022-12-05T09:50:17;5.00;75.90
75621;DHT22;64574;48.506;-2.750;2022-12-05T10:01:40;5.00;76.10
75621;DHT22;64574;48.506;-2.750;2022-12-05T10:20:29;5.10;75.80
75621;DHT22;64574;48.506;-2.750;2022-12-05T10:23:09;5.10;75.90
75621;DHT22;64574;48.506;-2.750;2022-12-05T10:25:36;5.10;75.90
75621;DHT22;64574;48.506;-2.750;2022-12-05T10:28:11;5.10;76.10
75621;DHT22;64574;48.506;-2.750;2022-12-05T10:30:41;5.00;76.10
75621;DHT22;64574;48.506;-2.750;2022-12-05T10:33:14;5.00;76.20
75621;DHT22;64574;48.506;-2.750;2022-12-05T10:35:42;5.10;75.80
75621;DHT22;64574;48.506;-2.750;2022-12-05T10:40:42;5.10;76.00
75621;DHT22;64574;48.506;-2.750;2022-12-05T10:43:27;5.30;76.00
75621;DHT22;64574;48.506;-2.750;2022-12-05T10:45:53;5.30;75.70
75621;DHT22;64574;48.506;-2.750;2022-12-05T10:48:20;5.30;75.80
75621;DHT22;64574;48.506;-2.750;2022-12-05T10:50:49;5.30;75.80
75621;DHT22;64574;48.506;-2.750;2022-12-05T10:53:18;5.30;75.90
75621;DHT22;64574;48.506;-2.750;2022-12-05T10:55:47;5.30;75.70
75621;DHT22;64574;48.506;-2.750;2022-12-05T10:58:26;5.30;75.60
75621;DHT22;64574;48.506;-2.750;2022-12-05T11:00:58;5.30;75.50
75621;DHT22;64574;48.506;-2.750;2022-12-05T11:03:34;5.40;74.90
75621;DHT22;64574;48.506;-2.750;2022-12-05T11:06:13;5.50;74.80
75621;DHT22;64574;48.506;-2.750;2022-12-05T11:08:39;5.50;74.60
75621;DHT22;64574;48.506;-2.750;2022-12-05T11:11:09;5.30;74.50
75621;DHT22;64574;48.506;-2.750;2022-12-05T11:13:57;5.30;74.40
75621;DHT22;64574;48.506;-2.750;2022-12-05T11:18:54;5.40;73.80
75621;DHT22;64574;48.506;-2.750;2022-12-05T11:21:20;5.50;73.80
75621;DHT22;64574;48.506;-2.750;2022-12-05T11:23:47;5.50;73.50
75621;DHT22;64574;48.506;-2.750;2022-12-05T11:28:43;5.40;73.30
75621;DHT22;64574;48.506;-2.750;2022-12-05T11:33:41;5.50;73.20
75621;DHT22;64574;48.506;-2.750;2022-12-05T11:36:16;5.50;73.10
75621;DHT22;64574;48.506;-2.750;2022-12-05T11:38:43;5.50;72.90
75621;DHT22;64574;48.506;-2.750;2022-12-05T11:55:46;5.50;70.40
75621;DHT22;64574;48.506;-2.750;2022-12-05T11:58:52;5.50;70.50
75621;DHT22;64574;48.506;-2.750;2022-12-05T12:01:07;5.50;69.50
75621;DHT22;64574;48.506;-2.750;2022-12-05T12:04:05;5.50;69.50
75621;DHT22;64574;48.506;-2.750;2022-12-05T12:12:27;5.60;69.70
75621;DHT22;64574;48.506;-2.750;2022-12-05T12:15:06;5.50;69.70
75621;DHT22;64574;48.506;-2.750;2022-12-05T12:17:53;5.30;69.50
75621;DHT22;64574;48.506;-2.750;2022-12-05T12:20:32;5.40;69.50
75621;DHT22;64574;48.506;-2.750;2022-12-05T12:23:22;5.40;69.30
75621;DHT22;64574;48.506;-2.750;2022-12-05T12:33:45;5.50;68.90
75621;DHT22;64574;48.506;-2.750;2022-12-05T12:36:25;5.50;68.80
75621;DHT22;64574;48.506;-2.750;2022-12-05T12:47:52;5.40;69.00
75621;DHT22;64574;48.506;-2.750;2022-12-05T12:50:32;5.30;69.00
75621;DHT22;64574;48.506;-2.750;2022-12-05T12:58:42;5.50;68.90
75621;DHT22;64574;48.506;-2.750;2022-12-05T13:04:13;5.30;68.00
75621;DHT22;64574;48.506;-2.750;2022-12-05T13:06:47;5.50;68.00
75621;DHT22;64574;48.506;-2.750;2022-12-05T13:09:21;5.50;67.80
75621;DHT22;64574;48.506;-2.750;2022-12-05T13:11:49;5.60;67.80
75621;DHT22;64574;48.506;-2.750;2022-12-05T13:14:19;5.60;67.50
75621;DHT22;64574;48.506;-2.750;2022-12-05T13:16:51;5.60;67.50
75621;DHT22;64574;48.506;-2.750;2022-12-05T13:19:26;5.70;67.50
75621;DHT22;64574;48.506;-2.750;2022-12-05T13:21:54;5.60;67.60
75621;DHT22;64574;48.506;-2.750;2022-12-05T13:24:25;5.70;67.50
75621;DHT22;64574;48.506;-2.750;2022-12-05T13:26:50;5.40;67.30
75621;DHT22;64574;48.506;-2.750;2022-12-05T13:30:05;5.50;67.20
75621;DHT22;64574;48.506;-2.750;2022-12-05T13:32:41;5.50;67.40
75621;DHT22;64574;48.506;-2.750;2022-12-05T13:35:19;5.50;67.30
75621;DHT22;64574;48.506;-2.750;2022-12-05T13:38:04;5.60;66.80
75621;DHT22;64574;48.506;-2.750;2022-12-05T13:40:51;5.60;66.80
75621;DHT22;64574;48.506;-2.750;2022-12-05T13:43:49;5.50;66.60
75621;DHT22;64574;48.506;-2.750;2022-12-05T13:46:29;5.70;66.70
75621;DHT22;64574;48.506;-2.750;2022-12-05T13:49:02;5.50;67.30
75621;DHT22;64574;48.506;-2.750;2022-12-05T14:05:34;5.60;67.30
75621;DHT22;64574;48.506;-2.750;2022-12-05T14:15:46;5.70;67.20
75621;DHT22;64574;48.506;-2.750;2022-12-05T14:24:31;5.70;66.90
75621;DHT22;64574;48.506;-2.750;2022-12-05T14:32:37;5.60;67.70
75621;DHT22;64574;48.506;-2.750;2022-12-05T14:38:03;5.70;67.80
75621;DHT22;64574;48.506;-2.750;2022-12-05T14:43:03;5.80;67.90
75621;DHT22;64574;48.506;-2.750;2022-12-05T14:47:57;5.60;67.70
75621;DHT22;64574;48.506;-2.750;2022-12-05T14:50:34;5.70;67.80
75621;DHT22;64574;48.506;-2.750;2022-12-05T14:56:04;5.80;67.70
75621;DHT22;64574;48.506;-2.750;2022-12-05T15:12:25;5.50;69.00
75621;DHT22;64574;48.506;-2.750;2022-12-05T15:20:19;5.50;69.40
75621;DHT22;64574;48.506;-2.750;2022-12-05T15:22:45;5.50;69.70
75621;DHT22;64574;48.506;-2.750;2022-12-05T15:25:24;5.60;69.50
75621;DHT22;64574;48.506;-2.750;2022-12-05T15:27:55;5.70;69.20
75621;DHT22;64574;48.506;-2.750;2022-12-05T15:30:22;5.70;69.50
75621;DHT22;64574;48.506;-2.750;2022-12-05T15:32:47;5.60;69.50
75621;DHT22;64574;48.506;-2.750;2022-12-05T15:35:14;5.70;69.60
75621;DHT22;64574;48.506;-2.750;2022-12-05T15:37:44;5.60;69.50
75621;DHT22;64574;48.506;-2.750;2022-12-05T15:40:14;5.60;69.70
75621;DHT22;64574;48.506;-2.750;2022-12-05T15:42:43;5.70;69.80
75621;DHT22;64574;48.506;-2.750;2022-12-05T15:50:32;5.60;69.90
75621;DHT22;64574;48.506;-2.750;2022-12-05T15:55:54;5.50;69.70
75621;DHT22;64574;48.506;-2.750;2022-12-05T16:01:09;5.60;69.40
75621;DHT22;64574;48.506;-2.750;2022-12-05T16:09:08;5.50;69.10
75621;DHT22;64574;48.506;-2.750;2022-12-05T16:11:38;5.50;69.10
75621;DHT22;64574;48.506;-2.750;2022-12-05T16:14:05;5.50;69.20
75621;DHT22;64574;48.506;-2.750;2022-12-05T16:16:35;5.50;69.10
75621;DHT22;64574;48.506;-2.750;2022-12-05T16:19:13;5.40;68.90
75621;DHT22;64574;48.506;-2.750;2022-12-05T16:24:45;5.50;68.60
75621;DHT22;64574;48.506;-2.750;2022-12-05T16:27:16;5.50;68.20
75621;DHT22;64574;48.506;-2.750;2022-12-05T16:29:43;5.50;68.30
75621;DHT22;64574;48.506;-2.750;2022-12-05T16:32:23;5.50;68.30
75621;DHT22;64574;48.506;-2.750;2022-12-05T16:34:49;5.50;68.50
75621;DHT22;64574;48.506;-2.750;2022-12-05T16:37:27;5.50;68.40
75621;DHT22;64574;48.506;-2.750;2022-12-05T16:39:53;5.40;68.70
75621;DHT22;64574;48.506;-2.750;2022-12-05T16:42:27;5.30;68.80
75621;DHT22;64574;48.506;-2.750;2022-12-05T16:44:54;5.30;68.60
75621;DHT22;64574;48.506;-2.750;2022-12-05T16:50:31;5.20;69.00
75621;DHT22;64574;48.506;-2.750;2022-12-05T16:55:40;5.20;69.20
75621;DHT22;64574;48.506;-2.750;2022-12-05T16:58:22;5.30;69.10
75621;DHT22;64574;48.506;-2.750;2022-12-05T17:00:49;5.30;69.10
75621;DHT22;64574;48.506;-2.750;2022-12-05T17:03:15;5.20;69.20
75621;DHT22;64574;48.506;-2.750;2022-12-05T17:05:41;5.20;69.40
75621;DHT22;64574;48.506;-2.750;2022-12-05T17:08:08;5.10;69.50
75621;DHT22;64574;48.506;-2.750;2022-12-05T17:10:33;5.10;69.70
75621;DHT22;64574;48.506;-2.750;2022-12-05T17:12:59;5.20;69.60
75621;DHT22;64574;48.506;-2.750;2022-12-05T17:15:27;5.30;69.50
75621;DHT22;64574;48.506;-2.750;2022-12-05T17:17:53;5.30;69.30
75621;DHT22;64574;48.506;-2.750;2022-12-05T17:20:19;5.30;69.20
75621;DHT22;64574;48.506;-2.750;2022-12-05T17:22:44;5.30;69.30
75621;DHT22;64574;48.506;-2.750;2022-12-05T17:25:27;5.30;69.30
75621;DHT22;64574;48.506;-2.750;2022-12-05T17:27:55;5.30;69.40
75621;DHT22;64574;48.506;-2.750;2022-12-05T17:30:21;5.30;69.20
75621;DHT22;64574;48.506;-2.750;2022-12-05T17:32:46;5.30;69.10
75621;DHT22;64574;48.506;-2.750;2022-12-05T17:35:16;5.30;69.10
75621;DHT22;64574;48.506;-2.750;2022-12-05T17:37:42;5.30;69.30
75621;DHT22;64574;48.506;-2.750;2022-12-05T17:40:08;5.30;69.30
75621;DHT22;64574;48.506;-2.750;2022-12-05T17:42:34;5.40;69.20
75621;DHT22;64574;48.506;-2.750;2022-12-05T17:44:59;5.40;69.20
75621;DHT22;64574;48.506;-2.750;2022-12-05T17:47:25;5.30;69.40
75621;DHT22;64574;48.506;-2.750;2022-12-05T17:49:51;5.30;69.60
75621;DHT22;64574;48.506;-2.750;2022-12-05T17:52:16;5.30;69.50
75621;DHT22;64574;48.506;-2.750;2022-12-05T17:54:42;5.30;69.70
75621;DHT22;64574;48.506;-2.750;2022-12-05T17:57:08;5.30;69.80
75621;DHT22;64574;48.506;-2.750;2022-12-05T17:59:34;5.30;69.90
75621;DHT22;64574;48.506;-2.750;2022-12-05T18:01:59;5.30;70.10
75621;DHT22;64574;48.506;-2.750;2022-12-05T18:04:25;5.20;70.50
75621;DHT22;64574;48.506;-2.750;2022-12-05T18:06:51;5.30;70.50
75621;DHT22;64574;48.506;-2.750;2022-12-05T18:09:17;5.30;70.40
75621;DHT22;64574;48.506;-2.750;2022-12-05T18:11:42;5.20;70.70
75621;DHT22;64574;48.506;-2.750;2022-12-05T18:14:08;5.30;70.80
75621;DHT22;64574;48.506;-2.750;2022-12-05T18:16:34;5.30;70.70
75621;DHT22;64574;48.506;-2.750;2022-12-05T18:19:00;5.30;70.70
75621;DHT22;64574;48.506;-2.750;2022-12-05T18:21:26;5.40;70.60
75621;DHT22;64574;48.506;-2.750;2022-12-05T18:23:51;5.30;70.70
75621;DHT22;64574;48.506;-2.750;2022-12-05T18:26:17;5.30;70.80
75621;DHT22;64574;48.506;-2.750;2022-12-05T18:28:43;5.30;71.00
75621;DHT22;64574;48.506;-2.750;2022-12-05T18:31:13;5.30;71.30
75621;DHT22;64574;48.506;-2.750;2022-12-05T18:33:41;5.30;71.20
75621;DHT22;64574;48.506;-2.750;2022-12-05T18:36:09;5.30;71.30
75621;DHT22;64574;48.506;-2.750;2022-12-05T18:38:36;5.30;71.60
75621;DHT22;64574;48.506;-2.750;2022-12-05T18:41:04;5.30;71.60
75621;DHT22;64574;48.506;-2.750;2022-12-05T18:43:31;5.40;71.50
75621;DHT22;64574;48.506;-2.750;2022-12-05T18:45:58;5.30;71.50
75621;DHT22;64574;48.506;-2.750;2022-12-05T18:48:24;5.50;71.40
75621;DHT22;64574;48.506;-2.750;2022-12-05T18:50:50;5.40;71.50
75621;DHT22;64574;48.506;-2.750;2022-12-05T18:53:16;5.50;71.50
75621;DHT22;64574;48.506;-2.750;2022-12-05T18:55:42;5.30;71.70
75621;DHT22;64574;48.506;-2.750;2022-12-05T18:58:07;5.30;71.80
75621;DHT22;64574;48.506;-2.750;2022-12-05T19:00:33;5.30;71.80
75621;DHT22;64574;48.506;-2.750;2022-12-05T19:02:59;5.20;72.10
75621;DHT22;64574;48.506;-2.750;2022-12-05T19:05:24;5.30;72.10
75621;DHT22;64574;48.506;-2.750;2022-12-05T19:07:53;5.30;71.90
75621;DHT22;64574;48.506;-2.750;2022-12-05T19:10:19;5.30;72.00
75621;DHT22;64574;48.506;-2.750;2022-12-05T19:12:45;5.20;72.20
75621;DHT22;64574;48.506;-2.750;2022-12-05T19:15:10;5.30;72.20
75621;DHT22;64574;48.506;-2.750;2022-12-05T19:17:36;5.30;72.10
75621;DHT22;64574;48.506;-2.750;2022-12-05T19:20:03;5.20;72.20
75621;DHT22;64574;48.506;-2.750;2022-12-05T19:22:29;5.20;72.30
75621;DHT22;64574;48.506;-2.750;2022-12-05T19:24:55;5.10;72.40